createdAt,value
2023-02-28T00:01:34.446Z,6.13
2023-02-28T00:04:01.315Z,7.57
2023-02-28T00:06:28.281Z,6.22
2023-02-28T00:08:55.230Z,8.00
2023-02-28T00:11:22.652Z,6.25
2023-02-28T00:13:49.593Z,5.65
2023-02-28T00:16:22.006Z,8.50
2023-02-28T00:18:48.951Z,6.55
2023-02-28T00:21:16.865Z,7.32
2023-02-28T00:24:05.310Z,8.15
2023-02-28T00:26:32.444Z,6.97
2023-02-28T00:28:59.289Z,7.45
2023-02-28T00:31:26.599Z,6.00
2023-02-28T00:33:53.607Z,7.13
2023-02-28T00:36:21.263Z,6.13
2023-02-28T00:38:47.996Z,9.35
2023-02-28T00:41:14.753Z,5.57
2023-02-28T00:43:41.510Z,7.82
2023-02-28T00:46:09.113Z,8.75
2023-02-28T00:48:35.875Z,7.82
2023-02-28T00:51:03.714Z,5.20
2023-02-28T00:53:33.443Z,6.75
2023-02-28T00:56:00.196Z,8.23
2023-02-28T00:58:27.678Z,9.18
2023-02-28T01:00:55.187Z,7.53
2023-02-28T01:03:23.530Z,6.60
2023-02-28T01:05:50.529Z,6.18
2023-02-28T01:08:17.481Z,6.15
2023-02-28T01:10:44.324Z,9.98
2023-02-28T01:13:12.471Z,6.22
2023-02-28T01:15:43.309Z,6.68
2023-02-28T01:18:11.385Z,9.82
2023-02-28T01:20:39.266Z,6.65
2023-02-28T01:23:06.092Z,7.03
2023-02-28T01:25:38.105Z,7.72
2023-02-28T01:28:06.742Z,6.38
2023-02-28T01:30:34.602Z,5.70
2023-02-28T01:33:01.694Z,6.30
2023-02-28T01:35:28.410Z,13.10
2023-02-28T01:37:55.273Z,9.50
2023-02-28T01:40:22.020Z,7.57
2023-02-28T01:42:48.723Z,9.70
2023-02-28T01:45:32.556Z,9.95
2023-02-28T01:48:01.673Z,8.68
2023-02-28T01:50:31.369Z,9.18
2023-02-28T01:53:01.842Z,12.13
2023-02-28T01:55:32.294Z,5.63
2023-02-28T01:58:01.641Z,7.03
2023-02-28T02:00:30.281Z,9.75
2023-02-28T02:03:00.262Z,7.47
2023-02-28T02:05:32.039Z,10.23
2023-02-28T02:08:06.450Z,9.73
2023-02-28T02:10:55.117Z,6.40
2023-02-28T02:13:41.420Z,10.43
2023-02-28T02:16:29.491Z,9.48
2023-02-28T02:19:33.732Z,8.27
2023-02-28T02:22:03.330Z,6.95
2023-02-28T02:24:48.785Z,5.22
2023-02-28T02:27:37.351Z,5.13
2023-02-28T02:30:45.062Z,9.00
2023-02-28T02:33:32.075Z,8.10
2023-02-28T02:36:04.322Z,8.38
2023-02-28T02:38:40.080Z,7.38
2023-02-28T02:41:20.109Z,6.32
2023-02-28T02:44:13.148Z,6.88
2023-02-28T02:46:43.796Z,5.65
2023-02-28T02:49:22.867Z,7.25
2023-02-28T02:51:50.197Z,7.47
2023-02-28T02:54:21.949Z,6.72
2023-02-28T02:56:50.777Z,6.45
2023-02-28T02:59:22.298Z,7.75
2023-02-28T03:02:01.486Z,5.32
2023-02-28T03:04:32.531Z,7.32
2023-02-28T03:06:59.361Z,7.88
2023-02-28T03:09:27.515Z,7.82
2023-02-28T03:11:56.802Z,6.85
2023-02-28T03:14:34.329Z,12.27
2023-02-28T03:17:13.217Z,7.75
2023-02-28T03:20:08.372Z,8.25
2023-02-28T03:23:24.906Z,7.82
2023-02-28T03:26:07.487Z,6.53
2023-02-28T03:28:40.194Z,11.02
2023-02-28T03:31:13.530Z,13.82
2023-02-28T03:33:44.709Z,8.23
2023-02-28T03:36:15.206Z,7.35
2023-02-28T03:39:05.260Z,8.25
2023-02-28T03:41:53.088Z,7.35
2023-02-28T03:44:29.359Z,8.05
2023-02-28T03:47:09.990Z,10.38
2023-02-28T03:49:44.671Z,8.75
2023-02-28T03:52:11.483Z,10.60
2023-02-28T03:54:48.134Z,9.07
2023-02-28T03:57:44.994Z,9.05
2023-02-28T04:00:22.860Z,8.98
2023-02-28T04:02:53.561Z,10.43
2023-02-28T04:05:21.732Z,8.63
2023-02-28T04:07:49.291Z,10.45
2023-02-28T04:10:17.159Z,12.55
2023-02-28T04:12:43.883Z,10.20
2023-02-28T04:15:12.227Z,8.05
2023-02-28T04:17:39.200Z,11.50
2023-02-28T04:20:10.554Z,10.13
2023-02-28T04:22:38.372Z,8.50
2023-02-28T04:25:06.888Z,10.77
2023-02-28T04:27:33.834Z,9.00
2023-02-28T04:30:00.771Z,13.25
2023-02-28T04:32:27.585Z,8.55
2023-02-28T04:34:54.397Z,10.77
2023-02-28T04:37:21.319Z,9.05
2023-02-28T04:39:48.084Z,10.82
2023-02-28T04:42:15.502Z,8.43
2023-02-28T04:44:42.356Z,11.43
2023-02-28T04:47:09.147Z,10.40
2023-02-28T04:49:36.134Z,11.63
2023-02-28T04:52:02.917Z,12.95
2023-02-28T04:54:30.217Z,9.30
2023-02-28T04:56:57.083Z,11.15
2023-02-28T04:59:23.977Z,8.85
2023-02-28T05:01:50.971Z,11.35
2023-02-28T05:04:18.133Z,12.18
2023-02-28T05:06:45.006Z,9.35
2023-02-28T05:09:14.540Z,10.48
2023-02-28T05:11:41.808Z,11.55
2023-02-28T05:14:13.071Z,11.63
2023-02-28T05:16:40.441Z,8.98
2023-02-28T05:19:07.298Z,12.48
2023-02-28T05:21:36.108Z,12.38
2023-02-28T05:24:05.996Z,12.05
2023-02-28T05:26:35.948Z,10.45
2023-02-28T05:29:03.015Z,7.82
2023-02-28T05:31:29.957Z,8.38
2023-02-28T05:33:56.746Z,16.90
2023-02-28T05:36:23.783Z,14.52
2023-02-28T05:38:51.502Z,11.32
2023-02-28T05:41:20.439Z,9.32
2023-02-28T05:43:48.031Z,8.95
2023-02-28T05:46:14.984Z,12.45
2023-02-28T05:48:43.255Z,8.77
2023-02-28T05:51:10.528Z,8.98
2023-02-28T05:53:37.258Z,9.10
2023-02-28T05:56:04.885Z,11.50
2023-02-28T05:58:32.219Z,13.05
2023-02-28T06:01:00.112Z,10.90
2023-02-28T06:03:27.401Z,10.40
2023-02-28T06:05:54.453Z,11.07
2023-02-28T06:08:21.380Z,8.63
2023-02-28T06:10:48.174Z,7.75
2023-02-28T06:13:15.291Z,8.52
2023-02-28T06:15:42.483Z,8.90
2023-02-28T06:18:09.464Z,9.50
2023-02-28T06:20:37.282Z,16.27
2023-02-28T06:23:04.326Z,14.38
2023-02-28T06:25:31.105Z,11.82
2023-02-28T06:27:57.992Z,10.30
2023-02-28T06:30:26.343Z,10.60
2023-02-28T06:32:53.850Z,12.50
2023-02-28T06:35:20.980Z,11.55
2023-02-28T06:37:48.289Z,8.55
2023-02-28T06:40:15.890Z,12.23
2023-02-28T06:42:42.944Z,12.30
2023-02-28T06:45:10.788Z,12.93
2023-02-28T06:47:39.670Z,9.68
2023-02-28T06:50:08.351Z,14.13
2023-02-28T06:52:37.183Z,11.55
2023-02-28T06:55:06.448Z,9.80
2023-02-28T06:57:34.418Z,9.05
2023-02-28T07:00:02.874Z,15.73
2023-02-28T07:02:29.772Z,9.07
2023-02-28T07:04:56.569Z,9.32
2023-02-28T07:07:23.395Z,8.38
2023-02-28T07:09:50.233Z,11.40
2023-02-28T07:12:17.704Z,9.02
2023-02-28T07:14:44.376Z,19.67
2023-02-28T07:17:13.261Z,19.63
2023-02-28T07:19:40.316Z,10.15
2023-02-28T07:22:07.879Z,9.77
2023-02-28T07:24:34.976Z,16.17
2023-02-28T07:27:02.535Z,12.95
2023-02-28T07:29:29.438Z,12.15
2023-02-28T07:31:56.637Z,10.48
2023-02-28T07:34:23.742Z,10.10
2023-02-28T07:36:54.523Z,8.32
2023-02-28T07:39:33.986Z,10.10
2023-02-28T07:42:01.275Z,13.35
2023-02-28T07:44:30.649Z,9.60
2023-02-28T07:46:57.606Z,8.75
2023-02-28T07:49:24.558Z,8.15
2023-02-28T07:51:53.906Z,11.18
2023-02-28T07:54:20.557Z,13.10
2023-02-28T07:56:48.489Z,10.52
2023-02-28T07:59:15.211Z,9.23
2023-02-28T08:01:42.007Z,7.43
2023-02-28T08:04:08.677Z,7.85
2023-02-28T08:06:36.280Z,15.35
2023-02-28T08:09:02.989Z,4.83
2023-02-28T08:11:30.054Z,9.80
2023-02-28T08:13:56.992Z,7.53
2023-02-28T08:16:23.804Z,7.80
2023-02-28T08:18:52.303Z,6.57
2023-02-28T08:21:19.911Z,8.87
2023-02-28T08:23:50.802Z,6.30
2023-02-28T08:26:18.727Z,10.07
2023-02-28T08:28:45.723Z,5.10
2023-02-28T08:31:15.368Z,9.27
2023-02-28T08:33:43.106Z,4.83
2023-02-28T08:36:10.225Z,3.43
2023-02-28T08:38:37.895Z,8.20
2023-02-28T08:41:08.256Z,6.80
2023-02-28T08:43:35.715Z,5.50
2023-02-28T08:46:02.914Z,3.63
2023-02-28T08:48:31.885Z,3.63
2023-02-28T08:51:07.540Z,7.30
2023-02-28T08:53:34.758Z,5.67
2023-02-28T08:56:03.751Z,5.13
2023-02-28T08:58:30.902Z,4.57
2023-02-28T09:00:58.114Z,6.37
2023-02-28T09:03:25.431Z,4.60
2023-02-28T09:05:59.997Z,8.47
2023-02-28T09:08:28.400Z,9.27
2023-02-28T09:10:58.103Z,4.73
2023-02-28T09:13:26.214Z,8.53
2023-02-28T09:15:53.900Z,6.60
2023-02-28T09:18:21.114Z,4.63
2023-02-28T09:20:47.826Z,6.73
2023-02-28T09:23:14.515Z,7.03
2023-02-28T09:25:48.407Z,6.53
2023-02-28T09:28:17.766Z,4.47
2023-02-28T09:30:50.597Z,4.35
2023-02-28T09:33:18.559Z,35.63
2023-02-28T09:35:45.478Z,3.37
2023-02-28T09:38:13.035Z,4.80
2023-02-28T09:40:56.891Z,3.30
2023-02-28T09:43:27.158Z,3.50
2023-02-28T09:46:01.841Z,3.17
2023-02-28T09:48:33.720Z,5.23
2023-02-28T09:51:16.275Z,4.35
2023-02-28T09:53:45.725Z,2.53
2023-02-28T09:56:26.855Z,2.42
2023-02-28T09:59:02.733Z,3.50
2023-02-28T10:01:38.558Z,3.07
2023-02-28T10:04:26.073Z,2.22
2023-02-28T10:06:54.227Z,2.67
2023-02-28T10:09:27.181Z,3.30
2023-02-28T10:11:56.966Z,5.22
2023-02-28T10:14:30.377Z,3.40
2023-02-28T10:17:06.954Z,3.33
2023-02-28T10:19:48.597Z,3.70
2023-02-28T10:22:19.256Z,2.00
2023-02-28T10:25:05.082Z,5.70
2023-02-28T10:27:33.994Z,2.05
2023-02-28T10:30:03.036Z,2.85
2023-02-28T10:32:35.202Z,1.98
2023-02-28T10:35:11.245Z,3.80
2023-02-28T10:37:39.906Z,3.83
2023-02-28T10:40:09.654Z,2.42
2023-02-28T10:42:39.896Z,3.53
2023-02-28T10:45:08.148Z,3.08
2023-02-28T10:47:36.272Z,2.97
2023-02-28T10:50:03.618Z,5.30
2023-02-28T10:52:48.403Z,3.40
2023-02-28T10:55:26.442Z,1.83
2023-02-28T10:57:53.675Z,2.17
2023-02-28T11:00:26.928Z,2.55
2023-02-28T11:02:54.400Z,4.00
2023-02-28T11:05:31.389Z,4.63
2023-02-28T11:08:03.268Z,4.17
2023-02-28T11:10:32.469Z,4.97
2023-02-28T11:13:01.017Z,2.05
2023-02-28T11:15:34.455Z,4.37
2023-02-28T11:18:03.814Z,2.60
2023-02-28T11:20:32.477Z,3.22
2023-02-28T11:23:02.051Z,2.13
2023-02-28T11:25:30.429Z,3.53
2023-02-28T11:28:05.725Z,1.47
2023-02-28T11:30:43.103Z,3.45
2023-02-28T11:33:29.578Z,3.00
2023-02-28T11:36:09.488Z,2.28
2023-02-28T11:38:37.110Z,1.90
2023-02-28T11:41:08.435Z,1.47
2023-02-28T11:43:57.298Z,1.40
2023-02-28T11:46:49.135Z,1.67
2023-02-28T11:49:39.528Z,5.13
2023-02-28T11:52:16.363Z,1.50
2023-02-28T11:55:07.865Z,2.17
2023-02-28T11:57:45.839Z,1.93
2023-02-28T12:00:18.461Z,2.37
2023-02-28T12:03:01.341Z,2.00
2023-02-28T12:05:34.495Z,5.50
2023-02-28T12:08:25.741Z,1.53
2023-02-28T12:11:02.585Z,2.10
2023-02-28T12:14:04.783Z,2.37
2023-02-28T12:16:56.003Z,2.57
2023-02-28T12:19:22.688Z,4.20
2023-02-28T12:22:11.349Z,6.43
2023-02-28T12:24:53.065Z,3.10
2023-02-28T12:27:25.838Z,4.03
2023-02-28T12:30:04.915Z,4.57
2023-02-28T12:32:38.467Z,5.03
2023-02-28T12:35:11.118Z,2.00
2023-02-28T12:37:44.082Z,1.50
2023-02-28T12:40:39.071Z,2.47
2023-02-28T12:43:12.143Z,4.60
2023-02-28T12:45:45.233Z,1.67
2023-02-28T12:48:40.201Z,2.03
2023-02-28T12:51:08.422Z,2.30
2023-02-28T12:53:56.434Z,3.23
2023-02-28T12:56:31.494Z,1.70
2023-02-28T12:59:03.066Z,1.77
2023-02-28T13:01:30.195Z,2.07
2023-02-28T13:04:28.097Z,4.67
2023-02-28T13:07:25.922Z,3.13
2023-02-28T13:09:54.466Z,1.67
2023-02-28T13:12:23.794Z,3.20
2023-02-28T13:14:51.312Z,5.03
2023-02-28T13:17:22.459Z,2.63
2023-02-28T13:19:55.340Z,2.13
2023-02-28T13:22:42.118Z,1.63
2023-02-28T13:25:35.897Z,2.07
2023-02-28T13:28:10.068Z,3.13
2023-02-28T13:30:52.913Z,9.40
2023-02-28T13:33:28.913Z,1.80
2023-02-28T13:36:17.104Z,2.37
2023-02-28T13:38:49.026Z,6.60
2023-02-28T13:41:36.938Z,5.27
2023-02-28T13:44:07.076Z,3.10
2023-02-28T13:46:37.038Z,6.17
2023-02-28T13:49:33.333Z,5.97
2023-02-28T13:52:19.068Z,4.53
2023-02-28T13:55:17.163Z,5.07
2023-02-28T13:58:13.841Z,4.33
2023-02-28T14:00:57.268Z,5.10
2023-02-28T14:03:49.009Z,3.43
2023-02-28T14:06:19.051Z,6.73
2023-02-28T14:08:56.743Z,2.30
2023-02-28T14:11:30.229Z,3.47
2023-02-28T14:13:57.162Z,2.43
2023-02-28T14:16:31.164Z,3.07
2023-02-28T14:19:16.950Z,2.57
2023-02-28T14:22:05.414Z,7.13
2023-02-28T14:24:40.036Z,3.83
2023-02-28T14:27:22.050Z,3.10
2023-02-28T14:29:51.951Z,3.07
2023-02-28T14:32:43.502Z,8.37
2023-02-28T14:35:23.876Z,2.23
2023-02-28T14:37:51.119Z,3.17
2023-02-28T14:40:22.954Z,4.73
2023-02-28T14:43:03.200Z,3.60
2023-02-28T14:45:31.865Z,3.43
2023-02-28T14:47:59.859Z,4.30
2023-02-28T14:50:37.246Z,2.37
2023-02-28T14:53:04.791Z,2.90
2023-02-28T14:55:36.407Z,4.93
2023-02-28T14:58:07.833Z,2.23
2023-02-28T15:00:47.812Z,2.03
2023-02-28T15:03:29.496Z,3.03
2023-02-28T15:06:00.709Z,2.60
2023-02-28T15:08:30.203Z,1.83
2023-02-28T15:11:24.806Z,5.07
2023-02-28T15:13:54.225Z,1.63
2023-02-28T15:16:39.802Z,1.97
2023-02-28T15:19:09.264Z,3.07
2023-02-28T15:21:39.146Z,1.73
2023-02-28T15:24:10.107Z,3.50
2023-02-28T15:26:40.921Z,5.23
2023-02-28T15:29:21.343Z,10.10
2023-02-28T15:32:05.019Z,2.53
2023-02-28T15:34:42.947Z,2.20
2023-02-28T15:37:31.642Z,2.67
2023-02-28T15:40:19.088Z,5.03
2023-02-28T15:43:06.118Z,2.30
2023-02-28T15:45:42.281Z,3.33
2023-02-28T15:48:27.427Z,2.77
2023-02-28T15:50:59.656Z,2.77
2023-02-28T15:53:33.207Z,2.80
2023-02-28T15:56:06.947Z,2.33
2023-02-28T15:58:34.304Z,4.27
2023-02-28T16:01:06.349Z,2.57
2023-02-28T16:03:46.636Z,3.60
2023-02-28T16:06:36.137Z,2.90
2023-02-28T16:09:05.216Z,2.77
2023-02-28T16:11:33.031Z,2.57
2023-02-28T16:13:59.946Z,3.70
2023-02-28T16:16:27.369Z,2.60
2023-02-28T16:18:54.583Z,3.47
2023-02-28T16:21:21.618Z,3.90
2023-02-28T16:23:48.322Z,3.77
2023-02-28T16:26:21.078Z,4.77
2023-02-28T16:28:48.233Z,2.70
2023-02-28T16:31:17.560Z,2.60
2023-02-28T16:33:45.929Z,3.40
2023-02-28T16:36:20.286Z,3.83
2023-02-28T16:38:47.335Z,3.13
2023-02-28T16:41:19.965Z,4.80
2023-02-28T16:43:51.651Z,2.57
2023-02-28T16:46:18.579Z,2.63
2023-02-28T16:48:46.252Z,2.30
2023-02-28T16:51:16.811Z,6.37
2023-02-28T16:53:44.753Z,3.47
2023-02-28T16:56:17.915Z,2.87
2023-02-28T16:58:45.132Z,4.13
2023-02-28T17:01:12.229Z,7.13
2023-02-28T17:03:41.168Z,5.13
2023-02-28T17:06:24.295Z,4.70
2023-02-28T17:08:52.202Z,2.27
2023-02-28T17:11:19.922Z,2.53
2023-02-28T17:13:47.201Z,2.07
2023-02-28T17:16:34.550Z,3.03
2023-02-28T17:19:04.606Z,4.20
2023-02-28T17:21:32.285Z,6.57
2023-02-28T17:23:59.349Z,3.37
2023-02-28T17:26:26.961Z,4.27
2023-02-28T17:28:56.713Z,3.83
2023-02-28T17:31:27.437Z,4.13
2023-02-28T17:33:57.679Z,15.00
2023-02-28T17:36:27.361Z,4.20
2023-02-28T17:38:56.305Z,3.23
2023-02-28T17:41:23.232Z,2.63
2023-02-28T17:43:51.575Z,9.00
2023-02-28T17:46:21.733Z,5.03
2023-02-28T17:48:53.422Z,5.77
2023-02-28T17:51:22.861Z,5.40
2023-02-28T17:53:50.177Z,3.97
2023-02-28T17:56:20.426Z,3.60
2023-02-28T17:58:47.384Z,3.00
2023-02-28T18:01:14.131Z,4.33
2023-02-28T18:03:41.110Z,4.30
2023-02-28T18:06:08.238Z,4.50
2023-02-28T18:08:36.494Z,5.87
2023-02-28T18:11:03.261Z,4.87
2023-02-28T18:13:30.034Z,5.30
2023-02-28T18:15:56.764Z,3.60
2023-02-28T18:18:23.745Z,5.97
2023-02-28T18:20:50.833Z,3.77
2023-02-28T18:23:19.360Z,2.83
2023-02-28T18:25:46.117Z,3.63
2023-02-28T18:28:12.942Z,3.10
2023-02-28T18:30:39.938Z,3.43
2023-02-28T18:33:06.853Z,6.90
2023-02-28T18:35:36.689Z,3.10
2023-02-28T18:38:11.472Z,4.83
2023-02-28T18:40:39.563Z,10.00
2023-02-28T18:43:06.696Z,3.90
2023-02-28T18:45:36.576Z,5.27
2023-02-28T18:48:03.599Z,3.77
2023-02-28T18:50:30.282Z,4.60
2023-02-28T18:52:59.209Z,3.60
2023-02-28T18:55:27.836Z,4.20
2023-02-28T18:57:54.902Z,4.70
2023-02-28T19:00:22.789Z,8.97
2023-02-28T19:02:50.658Z,6.87
2023-02-28T19:05:18.636Z,4.03
2023-02-28T19:07:46.138Z,6.27
2023-02-28T19:10:13.536Z,5.23
2023-02-28T19:12:42.888Z,8.03
2023-02-28T19:15:10.793Z,8.57
2023-02-28T19:17:38.778Z,7.37
2023-02-28T19:20:07.331Z,5.87
2023-02-28T19:22:34.282Z,5.60
2023-02-28T19:25:01.425Z,7.23
2023-02-28T19:27:28.071Z,8.67
2023-02-28T19:29:55.595Z,9.20
2023-02-28T19:32:22.483Z,8.90
2023-02-28T19:34:49.330Z,6.77
2023-02-28T19:37:16.310Z,6.93
2023-02-28T19:39:46.432Z,6.60
2023-02-28T19:42:16.216Z,11.23
2023-02-28T19:44:43.867Z,9.20
2023-02-28T19:47:11.271Z,9.43
2023-02-28T19:49:38.650Z,9.33
2023-02-28T19:52:05.795Z,10.03
2023-02-28T19:54:32.702Z,12.03
2023-02-28T19:56:59.399Z,9.40
2023-02-28T19:59:38.245Z,12.57
2023-02-28T20:02:06.860Z,11.93
2023-02-28T20:04:33.532Z,12.57
2023-02-28T20:07:00.278Z,11.70
2023-02-28T20:09:31.831Z,9.00
2023-02-28T20:12:01.599Z,12.90
2023-02-28T20:14:28.403Z,8.30
2023-02-28T20:16:57.222Z,9.03
2023-02-28T20:19:25.259Z,8.20
2023-02-28T20:21:52.155Z,6.63
2023-02-28T20:24:20.766Z,9.53
2023-02-28T20:26:47.606Z,9.30
2023-02-28T20:29:14.356Z,8.00
2023-02-28T20:31:41.446Z,12.17
2023-02-28T20:34:08.717Z,11.10
2023-02-28T20:36:35.804Z,8.80
2023-02-28T20:39:03.130Z,11.05
2023-02-28T20:41:29.801Z,9.00
2023-02-28T20:43:58.412Z,8.37
2023-02-28T20:46:26.118Z,8.63
2023-02-28T20:48:52.820Z,8.83
2023-02-28T20:51:19.852Z,11.98
2023-02-28T20:53:46.648Z,9.10
2023-02-28T20:56:16.222Z,11.13
2023-02-28T20:58:45.158Z,7.50
2023-02-28T21:01:26.275Z,9.43
2023-02-28T21:04:02.141Z,7.28
2023-02-28T21:06:34.997Z,10.50
2023-02-28T21:09:01.826Z,8.40
2023-02-28T21:11:30.888Z,8.27
2023-02-28T21:14:02.758Z,8.35
2023-02-28T21:16:30.552Z,13.63
2023-02-28T21:19:03.912Z,12.13
2023-02-28T21:21:39.558Z,11.43
2023-02-28T21:24:06.815Z,9.63
2023-02-28T21:26:33.833Z,11.73
2023-02-28T21:29:02.517Z,11.35
2023-02-28T21:31:31.978Z,13.32
2023-02-28T21:34:00.143Z,8.98
2023-02-28T21:36:32.797Z,11.32
2023-02-28T21:39:05.702Z,11.10
2023-02-28T21:41:32.576Z,10.27
2023-02-28T21:43:59.251Z,10.82
2023-02-28T21:46:28.377Z,12.40
2023-02-28T21:48:55.851Z,23.27
2023-02-28T21:51:25.365Z,21.63
2023-02-28T21:53:52.745Z,18.95
2023-02-28T21:56:27.092Z,15.25
2023-02-28T21:59:12.424Z,12.95
2023-02-28T22:01:41.002Z,14.10
2023-02-28T22:04:10.066Z,10.05
2023-02-28T22:06:41.536Z,11.65
2023-02-28T22:09:09.942Z,9.95
2023-02-28T22:11:38.436Z,12.57
2023-02-28T22:14:06.734Z,12.57
2023-02-28T22:16:50.217Z,12.48
2023-02-28T22:19:18.658Z,13.75
2023-02-28T22:21:46.796Z,11.77
2023-02-28T22:24:14.687Z,17.85
2023-02-28T22:26:41.642Z,10.30
2023-02-28T22:29:08.470Z,11.55
2023-02-28T22:31:36.183Z,14.35
2023-02-28T22:34:06.568Z,12.25
2023-02-28T22:36:33.576Z,8.57
2023-02-28T22:39:01.068Z,13.52
2023-02-28T22:41:29.586Z,11.88
2023-02-28T22:43:59.856Z,10.60
2023-02-28T22:46:28.288Z,11.45
2023-02-28T22:48:55.524Z,13.75
2023-02-28T22:51:25.281Z,9.95
2023-02-28T22:53:53.589Z,12.50
2023-02-28T22:56:22.117Z,11.23
2023-02-28T22:58:50.646Z,12.38
2023-02-28T23:01:18.719Z,11.50
2023-02-28T23:03:45.567Z,10.70
2023-02-28T23:06:25.087Z,12.98
2023-02-28T23:08:55.142Z,12.60
2023-02-28T23:11:29.291Z,11.95
2023-02-28T23:13:58.953Z,12.13
2023-02-28T23:16:30.741Z,14.48
2023-02-28T23:18:59.289Z,13.05
2023-02-28T23:21:27.085Z,11.82
2023-02-28T23:23:54.717Z,17.33
2023-02-28T23:26:21.551Z,15.07
2023-02-28T23:28:48.371Z,12.85
2023-02-28T23:31:15.699Z,13.40
2023-02-28T23:33:42.452Z,10.73
2023-02-28T23:36:14.084Z,9.93
2023-02-28T23:38:42.252Z,16.60
2023-02-28T23:41:10.012Z,11.48
2023-02-28T23:43:36.930Z,10.63
2023-02-28T23:46:04.339Z,11.95
2023-02-28T23:48:31.252Z,11.18
2023-02-28T23:51:08.801Z,11.80
2023-02-28T23:53:38.235Z,9.65
2023-02-28T23:56:09.677Z,12.85
2023-02-28T23:58:36.855Z,13.88
